53XS weather

Kornegay Private Airport
San Benito, Texas, United States

Public forecast

Using degrees Fahrenheit for public forecast. Weather courtesy of forecast.io.

Closest aviation weather report (METAR) to Kornegay Private Airport

Closest report is Valley International Airport, 5.9 nm (10.9 km) NW. Retrieved 2019/10/23 10:52 UTC (31 minutes ago):

KHRL 231052Z 10003KT 10SM CLR 18/17 A3002 RMK AO2 SLP166 T01780167

Closest aviation forecast (TAF) to Kornegay Private Airport

Closest forecast is Valley International Airport, 5.9 nm (10.9 km) NW. Retrieved 2019/10/23 06:22 UTC (5 hours ago):

TAF KHRL 230520Z 2306/2406 VRB04KT P6SM SKC FM231600 13013KT P6SM SCT040 BKN200 FM240100 12009KT P6SM FEW030 SCT150